createdAt,value
2023-02-16T00:01:13.884Z,68.35
2023-02-16T00:03:40.483Z,69.45
2023-02-16T00:06:07.280Z,68.55
2023-02-16T00:08:33.846Z,66.68
2023-02-16T00:11:18.835Z,63.53
2023-02-16T00:13:45.474Z,69.47
2023-02-16T00:16:18.046Z,70.15
2023-02-16T00:18:45.417Z,66.00
2023-02-16T00:21:12.032Z,65.90
2023-02-16T00:23:38.648Z,73.38
2023-02-16T00:26:06.273Z,68.07
2023-02-16T00:28:32.900Z,67.93
2023-02-16T00:30:59.573Z,66.68
2023-02-16T00:33:26.237Z,66.43
2023-02-16T00:35:52.821Z,69.38
2023-02-16T00:38:19.439Z,62.38
2023-02-16T00:40:46.343Z,67.80
2023-02-16T00:43:24.536Z,64.65
2023-02-16T00:45:51.708Z,65.18
2023-02-16T00:48:18.296Z,72.00
2023-02-16T00:50:45.058Z,68.70
2023-02-16T00:53:11.766Z,77.10
2023-02-16T00:55:39.485Z,66.60
2023-02-16T00:58:21.643Z,66.00
2023-02-16T01:00:54.001Z,64.43
2023-02-16T01:03:28.551Z,60.38
2023-02-16T01:06:14.382Z,70.55
2023-02-16T01:09:00.170Z,70.90
2023-02-16T01:11:27.237Z,66.68
2023-02-16T01:13:55.552Z,68.20
2023-02-16T01:16:25.032Z,70.90
2023-02-16T01:18:52.006Z,68.88
2023-02-16T01:21:21.785Z,68.00
2023-02-16T01:23:48.399Z,66.10
2023-02-16T01:26:17.885Z,69.88
2023-02-16T01:28:46.280Z,66.47
2023-02-16T01:31:16.103Z,69.38
2023-02-16T01:33:43.422Z,67.07
2023-02-16T01:36:30.126Z,69.15
2023-02-16T01:38:58.410Z,70.10
2023-02-16T01:41:37.651Z,77.32
2023-02-16T01:44:11.459Z,65.10
2023-02-16T01:46:52.762Z,76.25
2023-02-16T01:49:20.768Z,69.38
2023-02-16T01:51:56.012Z,70.80
2023-02-16T01:54:29.073Z,73.07
2023-02-16T01:57:04.456Z,70.45
2023-02-16T01:59:49.228Z,73.45
2023-02-16T02:02:23.358Z,77.38
2023-02-16T02:05:11.604Z,75.32
2023-02-16T02:08:00.107Z,73.55
2023-02-16T02:10:46.653Z,71.30
2023-02-16T02:13:34.344Z,74.38
2023-02-16T02:16:01.750Z,74.25
2023-02-16T02:18:29.083Z,71.53
2023-02-16T02:21:52.906Z,73.40
2023-02-16T02:24:57.342Z,65.32
2023-02-16T02:27:26.130Z,76.22
2023-02-16T02:30:02.127Z,68.45
2023-02-16T02:32:50.841Z,70.70
2023-02-16T02:35:43.822Z,69.88
2023-02-16T02:38:22.590Z,73.18
2023-02-16T02:41:10.483Z,72.30
2023-02-16T02:43:44.896Z,75.03
2023-02-16T02:46:35.390Z,76.55
2023-02-16T02:49:03.776Z,75.10
2023-02-16T02:51:30.599Z,71.68
2023-02-16T02:54:25.458Z,72.88
2023-02-16T02:57:21.639Z,72.65
2023-02-16T03:00:20.423Z,67.15
2023-02-16T03:02:49.983Z,74.10
2023-02-16T03:05:18.182Z,74.95
2023-02-16T03:07:46.755Z,76.70
2023-02-16T03:10:41.054Z,79.05
2023-02-16T03:13:18.462Z,68.78
2023-02-16T03:15:47.220Z,76.93
2023-02-16T03:18:33.362Z,75.20
2023-02-16T03:21:19.542Z,72.68
2023-02-16T03:24:06.708Z,76.72
2023-02-16T03:26:52.545Z,77.60
2023-02-16T03:29:21.952Z,83.57
2023-02-16T03:31:51.011Z,79.13
2023-02-16T03:34:19.206Z,82.15
2023-02-16T03:36:48.914Z,82.70
2023-02-16T03:39:15.830Z,85.90
2023-02-16T03:41:46.795Z,83.47
2023-02-16T03:44:13.369Z,76.25
2023-02-16T03:46:39.961Z,85.75
2023-02-16T03:49:06.506Z,91.18
2023-02-16T03:51:33.275Z,91.03
2023-02-16T03:54:00.024Z,86.63
2023-02-16T03:56:26.573Z,87.30
2023-02-16T03:58:53.329Z,85.10
2023-02-16T04:01:19.924Z,92.72
2023-02-16T04:03:52.963Z,94.78
2023-02-16T04:06:19.609Z,99.55
2023-02-16T04:08:46.157Z,91.53
2023-02-16T04:11:31.352Z,93.50
2023-02-16T04:13:58.005Z,87.45
2023-02-16T04:16:24.614Z,100.22
2023-02-16T04:18:51.212Z,92.13
2023-02-16T04:21:17.720Z,89.15
2023-02-16T04:23:44.289Z,92.03
2023-02-16T04:26:10.862Z,93.95
2023-02-16T04:28:37.441Z,89.45
2023-02-16T04:31:04.440Z,95.00
2023-02-16T04:33:31.199Z,91.18
2023-02-16T04:35:57.782Z,89.50
2023-02-16T04:38:26.052Z,86.72
2023-02-16T04:40:52.630Z,90.97
2023-02-16T04:43:19.224Z,86.40
2023-02-16T04:45:45.799Z,86.28
2023-02-16T04:48:12.531Z,91.55
2023-02-16T04:50:39.149Z,96.03
2023-02-16T04:53:05.715Z,90.00
2023-02-16T04:55:32.257Z,90.10
2023-02-16T04:57:58.833Z,89.88
2023-02-16T05:00:25.709Z,92.32
2023-02-16T05:02:52.296Z,86.28
2023-02-16T05:05:18.869Z,83.53
2023-02-16T05:07:45.436Z,82.18
2023-02-16T05:10:12.034Z,92.10
2023-02-16T05:12:57.010Z,86.15
2023-02-16T05:15:24.106Z,90.95
2023-02-16T05:17:50.734Z,85.45
2023-02-16T05:20:17.358Z,85.53
2023-02-16T05:22:45.655Z,83.40
2023-02-16T05:25:12.424Z,85.22
2023-02-16T05:27:38.978Z,84.80
2023-02-16T05:30:06.190Z,85.13
2023-02-16T05:32:32.806Z,81.15
2023-02-16T05:34:59.355Z,87.22
2023-02-16T05:37:25.955Z,82.95
2023-02-16T05:39:53.059Z,84.70
2023-02-16T05:42:19.705Z,79.13
2023-02-16T05:44:46.317Z,75.97
2023-02-16T05:47:12.959Z,89.40
2023-02-16T05:49:39.588Z,79.43
2023-02-16T05:52:06.124Z,86.95
2023-02-16T05:54:32.821Z,79.20
2023-02-16T05:56:59.406Z,83.07
2023-02-16T05:59:25.959Z,84.18
2023-02-16T06:01:52.807Z,81.25
2023-02-16T06:04:20.251Z,83.88
2023-02-16T06:06:47.153Z,86.10
2023-02-16T06:09:13.743Z,84.03
2023-02-16T06:11:40.346Z,79.60
2023-02-16T06:14:18.202Z,83.35
2023-02-16T06:16:49.758Z,80.28
2023-02-16T06:19:17.440Z,83.88
2023-02-16T06:21:44.536Z,78.68
2023-02-16T06:24:12.467Z,74.35
2023-02-16T06:26:39.090Z,82.32
2023-02-16T06:29:06.266Z,83.03
2023-02-16T06:31:36.043Z,80.25
2023-02-16T06:34:03.806Z,79.68
2023-02-16T06:36:30.795Z,76.25
2023-02-16T06:38:57.447Z,80.53
2023-02-16T06:41:35.781Z,81.57
2023-02-16T06:44:07.465Z,81.85
2023-02-16T06:46:34.383Z,81.30
2023-02-16T06:49:01.249Z,81.25
2023-02-16T06:51:28.175Z,80.20
2023-02-16T06:53:54.740Z,82.50
2023-02-16T06:56:21.619Z,79.68
2023-02-16T06:58:48.476Z,79.22
2023-02-16T07:01:15.355Z,85.95
2023-02-16T07:03:42.064Z,79.55
2023-02-16T07:06:08.774Z,82.82
2023-02-16T07:08:35.956Z,82.90
2023-02-16T07:11:02.673Z,80.60
2023-02-16T07:13:29.307Z,84.78
2023-02-16T07:15:55.907Z,81.45
2023-02-16T07:18:22.549Z,82.45
2023-02-16T07:20:49.167Z,81.95
2023-02-16T07:23:15.692Z,77.43
2023-02-16T07:25:42.256Z,74.38
2023-02-16T07:28:08.855Z,77.07
2023-02-16T07:30:36.070Z,76.18
2023-02-16T07:33:03.050Z,75.05
2023-02-16T07:35:29.685Z,77.38
2023-02-16T07:37:56.303Z,75.63
2023-02-16T07:40:22.866Z,74.88
2023-02-16T07:42:49.475Z,78.18
2023-02-16T07:45:16.097Z,78.30
2023-02-16T07:47:42.727Z,75.35
2023-02-16T07:50:09.608Z,76.32
2023-02-16T07:52:36.292Z,76.80
2023-02-16T07:55:03.494Z,79.40
2023-02-16T07:57:30.258Z,77.95
2023-02-16T07:59:56.829Z,78.70
2023-02-16T08:02:24.396Z,75.30
2023-02-16T08:04:54.345Z,72.90
2023-02-16T08:07:21.367Z,75.30
2023-02-16T08:09:48.018Z,74.10
2023-02-16T08:12:15.860Z,76.57
2023-02-16T08:14:43.325Z,77.28
2023-02-16T08:17:10.449Z,77.28
2023-02-16T08:19:40.313Z,80.10
2023-02-16T08:22:08.005Z,74.97
2023-02-16T08:24:34.949Z,77.43
2023-02-16T08:27:04.350Z,73.78
2023-02-16T08:29:31.696Z,73.78
2023-02-16T08:31:58.618Z,78.68
2023-02-16T08:34:25.508Z,79.75
2023-02-16T08:36:56.988Z,75.35
2023-02-16T08:39:26.018Z,74.90
2023-02-16T08:41:53.565Z,76.88
2023-02-16T08:44:21.536Z,80.28
2023-02-16T08:46:49.078Z,82.68
2023-02-16T08:49:18.631Z,77.60
2023-02-16T08:51:48.152Z,77.43
2023-02-16T08:54:20.621Z,77.32
2023-02-16T08:56:48.116Z,76.70
2023-02-16T08:59:15.916Z,74.93
2023-02-16T09:01:42.776Z,72.80
2023-02-16T09:04:09.572Z,77.78
2023-02-16T09:06:37.741Z,83.43
2023-02-16T09:09:04.989Z,72.57
2023-02-16T09:11:31.841Z,79.35
2023-02-16T09:13:58.864Z,78.95
2023-02-16T09:16:27.839Z,81.82
2023-02-16T09:18:54.964Z,73.75
2023-02-16T09:21:25.479Z,82.95
2023-02-16T09:23:54.493Z,85.05
2023-02-16T09:26:22.568Z,78.00
2023-02-16T09:28:50.453Z,80.20
2023-02-16T09:31:26.317Z,80.97
2023-02-16T09:34:02.337Z,75.30
2023-02-16T09:36:29.445Z,83.78
2023-02-16T09:38:56.429Z,79.78
2023-02-16T09:41:35.959Z,87.50
2023-02-16T09:44:24.037Z,89.50
2023-02-16T09:46:50.695Z,81.38
2023-02-16T09:49:26.906Z,84.30
2023-02-16T09:52:01.513Z,84.63
2023-02-16T09:54:39.023Z,82.20
2023-02-16T09:57:14.168Z,79.88
2023-02-16T09:59:56.884Z,86.97
2023-02-16T10:02:35.020Z,81.38
2023-02-16T10:05:12.996Z,75.28
2023-02-16T10:08:03.214Z,50.53
2023-02-16T10:10:44.241Z,60.45
2023-02-16T10:13:37.671Z,63.92
2023-02-16T10:16:05.737Z,52.57
2023-02-16T10:18:37.832Z,65.35
2023-02-16T10:21:08.417Z,63.38
2023-02-16T10:23:40.377Z,56.58
2023-02-16T10:26:21.434Z,65.32
2023-02-16T10:28:55.394Z,61.67
2023-02-16T10:31:44.343Z,54.63
2023-02-16T10:34:37.840Z,62.67
2023-02-16T10:37:23.059Z,62.23
2023-02-16T10:40:14.576Z,63.38
2023-02-16T10:43:14.305Z,63.78
2023-02-16T10:45:52.465Z,58.83
2023-02-16T10:48:22.858Z,60.67
2023-02-16T10:51:16.678Z,62.72
2023-02-16T10:53:50.448Z,65.88
2023-02-16T10:58:51.958Z,88.63
2023-02-16T11:01:48.828Z,93.85
2023-02-16T11:04:40.526Z,95.90
2023-02-16T11:07:12.920Z,96.53
2023-02-16T11:09:40.672Z,96.20
2023-02-16T11:12:16.623Z,101.22
2023-02-16T11:14:49.423Z,102.90
2023-02-16T11:17:17.122Z,105.43
2023-02-16T11:20:05.532Z,102.93
2023-02-16T11:22:37.911Z,108.25
2023-02-16T11:25:21.271Z,103.13
2023-02-16T11:28:00.200Z,107.53
2023-02-16T11:30:35.911Z,109.25
2023-02-16T11:33:05.544Z,106.60
2023-02-16T11:35:33.393Z,103.55
2023-02-16T11:38:00.153Z,109.28
2023-02-16T11:40:30.687Z,104.78
2023-02-16T11:42:59.228Z,105.82
2023-02-16T11:45:34.639Z,98.70
2023-02-16T11:48:12.288Z,106.70
2023-02-16T11:50:41.074Z,104.35
2023-02-16T11:53:11.275Z,94.15
2023-02-16T11:55:43.591Z,107.07
2023-02-16T11:58:29.168Z,104.13
2023-02-16T12:01:16.623Z,94.90
2023-02-16T12:04:04.672Z,67.00
2023-02-16T12:06:51.413Z,67.90
2023-02-16T12:09:42.488Z,65.35
2023-02-16T12:12:26.864Z,74.30
2023-02-16T12:15:09.834Z,72.85
2023-02-16T12:17:50.030Z,74.68
2023-02-16T12:20:26.634Z,70.70
2023-02-16T12:23:02.647Z,70.70
2023-02-16T12:25:36.782Z,73.63
2023-02-16T12:28:06.030Z,76.50
2023-02-16T12:30:52.700Z,72.40
2023-02-16T12:33:26.761Z,69.45
2023-02-16T12:35:59.066Z,71.90
2023-02-16T12:38:49.816Z,68.10
2023-02-16T12:41:32.192Z,70.93
2023-02-16T12:44:03.430Z,72.35
2023-02-16T12:46:39.368Z,71.88
2023-02-16T12:49:25.456Z,66.05
2023-02-16T12:52:05.332Z,66.30
2023-02-16T12:54:38.969Z,67.15
2023-02-16T12:57:13.458Z,66.57
2023-02-16T12:59:55.599Z,61.47
2023-02-16T13:02:26.887Z,61.10
2023-02-16T13:04:57.361Z,57.38
2023-02-16T13:07:36.199Z,56.17
2023-02-16T13:10:23.683Z,52.60
2023-02-16T13:13:01.159Z,59.63
2023-02-16T13:15:38.136Z,52.72
2023-02-16T13:18:07.568Z,48.38
2023-02-16T13:20:34.174Z,54.28
2023-02-16T13:23:22.480Z,47.63
2023-02-16T13:26:05.627Z,47.67
2023-02-16T13:28:38.958Z,48.20
2023-02-16T13:31:29.731Z,46.47
2023-02-16T13:34:10.761Z,45.15
2023-02-16T13:36:43.415Z,44.13
2023-02-16T13:39:29.909Z,43.38
2023-02-16T13:42:18.179Z,40.88
2023-02-16T13:44:54.481Z,45.50
2023-02-16T13:47:27.243Z,46.42
2023-02-16T13:49:58.861Z,45.92
2023-02-16T13:52:40.363Z,46.90
2023-02-16T13:55:25.804Z,47.08
2023-02-16T13:57:58.352Z,44.97
2023-02-16T14:00:28.964Z,50.40
2023-02-16T14:02:59.482Z,48.45
2023-02-16T14:05:49.171Z,48.13
2023-02-16T14:08:20.652Z,50.90
2023-02-16T14:10:57.274Z,48.33
2023-02-16T14:13:39.150Z,50.17
2023-02-16T14:16:10.306Z,52.28
2023-02-16T14:18:40.201Z,50.75
2023-02-16T14:21:17.492Z,54.63
2023-02-16T14:23:44.102Z,51.92
2023-02-16T14:26:14.794Z,53.00
2023-02-16T14:29:17.239Z,53.50
2023-02-16T14:31:48.887Z,62.25
2023-02-16T14:34:19.902Z,61.65
2023-02-16T14:37:27.819Z,61.33
2023-02-16T14:40:08.770Z,61.03
2023-02-16T14:42:35.917Z,63.22
2023-02-16T14:45:14.384Z,57.65
2023-02-16T14:47:59.057Z,52.35
2023-02-16T14:50:34.429Z,59.80
2023-02-16T14:53:19.573Z,54.72
2023-02-16T14:56:08.604Z,51.72
2023-02-16T14:58:57.517Z,60.58
2023-02-16T15:01:24.886Z,59.80
2023-02-16T15:03:54.472Z,53.83
2023-02-16T15:06:30.218Z,52.63
2023-02-16T15:08:59.890Z,54.25
2023-02-16T15:12:00.697Z,50.75
2023-02-16T15:14:27.966Z,61.88
2023-02-16T15:16:55.999Z,54.92
2023-02-16T15:19:27.469Z,54.28
2023-02-16T15:22:26.049Z,62.55
2023-02-16T15:25:00.892Z,67.00
2023-02-16T15:27:28.936Z,61.60
2023-02-16T15:30:06.234Z,61.30
2023-02-16T15:32:33.285Z,60.60
2023-02-16T15:35:09.936Z,60.88
2023-02-16T15:37:37.918Z,62.67
2023-02-16T15:40:25.335Z,62.22
2023-02-16T15:42:54.279Z,66.15
2023-02-16T15:45:39.149Z,62.53
2023-02-16T15:48:30.008Z,62.55
2023-02-16T15:51:12.988Z,66.22
2023-02-16T15:53:42.553Z,67.85
2023-02-16T15:56:29.503Z,65.90
2023-02-16T15:58:58.796Z,71.13
2023-02-16T16:01:32.961Z,67.43
2023-02-16T16:04:06.784Z,63.55
2023-02-16T16:06:36.068Z,70.38
2023-02-16T16:09:06.041Z,68.43
2023-02-16T16:11:33.186Z,62.78
2023-02-16T16:14:00.494Z,68.45
2023-02-16T16:16:28.694Z,71.57
2023-02-16T16:19:06.842Z,103.78
2023-02-16T16:21:39.226Z,67.35
2023-02-16T16:24:10.717Z,65.25
2023-02-16T16:26:58.008Z,67.85
2023-02-16T16:29:46.340Z,67.10
2023-02-16T16:32:31.392Z,64.82
2023-02-16T16:34:59.158Z,70.28
2023-02-16T16:37:34.324Z,65.10
2023-02-16T16:40:08.696Z,69.28
2023-02-16T16:42:39.105Z,68.55
2023-02-16T16:45:27.651Z,65.55
2023-02-16T16:47:59.625Z,70.35
2023-02-16T16:50:32.637Z,62.50
2023-02-16T16:52:59.312Z,64.57
2023-02-16T16:55:31.752Z,61.72
2023-02-16T16:58:06.292Z,64.55
2023-02-16T17:00:36.643Z,71.30
2023-02-16T17:03:05.007Z,59.42
2023-02-16T17:05:31.957Z,63.55
2023-02-16T17:07:58.570Z,84.53
2023-02-16T17:10:25.485Z,68.57
2023-02-16T17:12:54.109Z,62.67
2023-02-16T17:15:28.420Z,68.03
2023-02-16T17:17:55.318Z,62.70
2023-02-16T17:20:22.890Z,72.15
2023-02-16T17:22:49.506Z,64.93
2023-02-16T17:25:16.330Z,73.03
2023-02-16T17:27:42.868Z,69.03
2023-02-16T17:30:11.119Z,76.63
2023-02-16T17:32:38.214Z,71.22
2023-02-16T17:35:05.370Z,71.53
2023-02-16T17:37:35.611Z,79.47
2023-02-16T17:40:04.128Z,77.93
2023-02-16T17:42:30.696Z,73.43
2023-02-16T17:44:57.256Z,75.32
2023-02-16T17:47:23.893Z,77.32
2023-02-16T17:49:50.420Z,75.07
2023-02-16T17:52:17.085Z,84.35
2023-02-16T17:54:44.730Z,84.55
2023-02-16T17:57:11.400Z,295.92
2023-02-16T17:59:38.020Z,211.15
2023-02-16T18:02:04.583Z,97.00
2023-02-16T18:04:31.209Z,86.97
2023-02-16T18:06:57.895Z,93.22
2023-02-16T18:09:24.613Z,80.90
2023-02-16T18:11:51.426Z,118.80
2023-02-16T18:14:18.033Z,105.80
2023-02-16T18:16:44.688Z,107.10
2023-02-16T18:19:14.662Z,80.78
2023-02-16T18:21:41.354Z,91.50
2023-02-16T18:24:08.148Z,91.55
2023-02-16T18:26:34.721Z,332.60
2023-02-16T18:29:01.284Z,297.15
2023-02-16T18:31:27.997Z,95.80
2023-02-16T18:33:54.676Z,89.75
2023-02-16T18:36:23.733Z,89.43
2023-02-16T18:38:51.481Z,88.97
2023-02-16T18:41:18.117Z,118.05
2023-02-16T18:43:44.663Z,96.50
2023-02-16T18:46:12.498Z,94.45
2023-02-16T18:48:39.256Z,87.78
2023-02-16T18:51:10.620Z,92.22
2023-02-16T18:53:37.709Z,106.88
2023-02-16T18:56:08.866Z,93.50
2023-02-16T18:58:36.010Z,86.68
2023-02-16T19:01:14.830Z,92.18
2023-02-16T19:03:41.631Z,105.65
2023-02-16T19:06:08.359Z,89.35
2023-02-16T19:08:34.918Z,92.57
2023-02-16T19:11:01.490Z,102.80
2023-02-16T19:13:28.065Z,101.70
2023-02-16T19:15:54.805Z,105.90
2023-02-16T19:18:21.472Z,100.00
2023-02-16T19:20:48.145Z,100.93
2023-02-16T19:23:14.751Z,107.72
2023-02-16T19:25:41.400Z,96.03
2023-02-16T19:28:07.981Z,96.13
2023-02-16T19:30:34.605Z,94.55
2023-02-16T19:33:01.381Z,98.78
2023-02-16T19:35:28.016Z,90.05
2023-02-16T19:37:55.793Z,93.25
2023-02-16T19:40:22.656Z,89.45
2023-02-16T19:42:49.320Z,87.03
2023-02-16T19:45:16.004Z,87.63
2023-02-16T19:47:42.590Z,89.30
2023-02-16T19:50:09.592Z,102.78
2023-02-16T19:52:36.225Z,95.03
2023-02-16T19:55:02.872Z,91.65
2023-02-16T19:57:29.423Z,93.20
2023-02-16T19:59:56.053Z,91.57
2023-02-16T20:02:22.726Z,87.22
2023-02-16T20:04:49.395Z,85.38
2023-02-16T20:07:16.226Z,87.57
2023-02-16T20:09:42.876Z,83.00
2023-02-16T20:12:09.800Z,83.47
2023-02-16T20:14:36.964Z,82.65
2023-02-16T20:17:03.656Z,89.63
2023-02-16T20:19:30.288Z,89.07
2023-02-16T20:21:56.863Z,76.30
2023-02-16T20:24:23.453Z,83.07
2023-02-16T20:26:51.986Z,80.65
2023-02-16T20:29:18.621Z,77.50
2023-02-16T20:31:55.464Z,79.85
2023-02-16T20:34:22.772Z,66.72
2023-02-16T20:36:49.390Z,84.00
2023-02-16T20:39:16.017Z,67.57
2023-02-16T20:41:43.474Z,67.07
2023-02-16T20:44:10.761Z,71.50
2023-02-16T20:46:38.760Z,68.03
2023-02-16T20:49:06.655Z,61.15
2023-02-16T20:51:34.430Z,69.25
2023-02-16T20:54:02.030Z,70.72
2023-02-16T20:56:29.183Z,69.18
2023-02-16T20:58:57.269Z,65.70
2023-02-16T21:01:23.728Z,66.00
2023-02-16T21:03:51.308Z,65.80
2023-02-16T21:06:18.530Z,57.33
2023-02-16T21:08:46.092Z,59.20
2023-02-16T21:11:12.929Z,62.95
2023-02-16T21:13:40.254Z,58.80
2023-02-16T21:16:08.149Z,61.35
2023-02-16T21:18:35.178Z,57.85
2023-02-16T21:21:02.781Z,59.80
2023-02-16T21:23:30.134Z,55.97
2023-02-16T21:26:00.989Z,52.50
2023-02-16T21:28:28.055Z,56.00
2023-02-16T21:30:55.401Z,55.33
2023-02-16T21:33:22.060Z,61.15
2023-02-16T21:35:48.610Z,54.05
2023-02-16T21:38:16.750Z,56.45
2023-02-16T21:41:01.926Z,55.47
2023-02-16T21:43:28.499Z,59.88
2023-02-16T21:45:59.750Z,58.58
2023-02-16T21:48:44.929Z,60.83
2023-02-16T21:51:16.279Z,54.10
2023-02-16T21:53:42.924Z,63.40
2023-02-16T21:56:23.054Z,53.78
2023-02-16T21:58:50.078Z,62.50
2023-02-16T22:01:21.645Z,47.00
2023-02-16T22:03:48.402Z,53.58
2023-02-16T22:06:15.076Z,49.33
2023-02-16T22:08:41.651Z,52.35
2023-02-16T22:11:11.309Z,46.58
2023-02-16T22:13:38.710Z,46.88
2023-02-16T22:16:17.867Z,51.15
2023-02-16T22:18:44.772Z,50.72
2023-02-16T22:21:11.454Z,49.20
2023-02-16T22:23:38.873Z,40.20
2023-02-16T22:26:06.967Z,46.33
2023-02-16T22:28:34.381Z,44.35
2023-02-16T22:31:08.308Z,48.95
2023-02-16T22:33:35.427Z,48.38
2023-02-16T22:36:12.773Z,42.40
2023-02-16T22:38:45.402Z,47.80
2023-02-16T22:41:12.346Z,45.85
2023-02-16T22:43:40.898Z,44.60
2023-02-16T22:46:15.721Z,43.03
2023-02-16T22:48:43.043Z,41.22
2023-02-16T22:51:11.994Z,42.72
2023-02-16T22:53:38.902Z,40.78
2023-02-16T22:56:10.033Z,43.28
2023-02-16T22:58:36.875Z,41.95
2023-02-16T23:01:03.834Z,43.63
2023-02-16T23:03:31.077Z,43.13
2023-02-16T23:05:57.699Z,42.60
2023-02-16T23:08:24.288Z,42.63
2023-02-16T23:10:59.989Z,37.72
2023-02-16T23:13:28.461Z,39.97
2023-02-16T23:15:56.031Z,42.15
2023-02-16T23:18:25.645Z,41.22
2023-02-16T23:20:52.332Z,39.22
2023-02-16T23:23:18.924Z,36.80
2023-02-16T23:25:46.766Z,37.17
2023-02-16T23:28:14.422Z,37.00
2023-02-16T23:30:45.902Z,35.33
2023-02-16T23:33:13.508Z,36.72
2023-02-16T23:35:41.394Z,40.05
2023-02-16T23:38:11.996Z,38.72
2023-02-16T23:40:38.636Z,37.60
2023-02-16T23:43:05.949Z,36.00
2023-02-16T23:45:32.509Z,34.25
2023-02-16T23:47:59.081Z,37.97
2023-02-16T23:50:25.709Z,36.03
2023-02-16T23:52:52.385Z,34.58
2023-02-16T23:55:18.994Z,42.75
2023-02-16T23:57:45.617Z,40.00
